createdAt,value
2023-02-18T00:04:47.084Z,2.13
2023-02-18T00:12:20.930Z,2.08
2023-02-18T00:19:57.152Z,2.07
2023-02-18T00:35:24.041Z,2.08
2023-02-18T00:42:57.957Z,1.58
2023-02-18T00:50:33.189Z,2.03
2023-02-18T00:58:07.137Z,1.80
2023-02-18T01:05:43.709Z,2.40
2023-02-18T01:13:18.279Z,3.00
2023-02-18T01:20:53.615Z,1.60
2023-02-18T01:28:28.098Z,1.77
2023-02-18T01:36:03.740Z,1.95
2023-02-18T01:43:38.806Z,2.13
2023-02-18T01:51:18.378Z,1.58
2023-02-18T01:58:55.879Z,1.20
2023-02-18T02:06:31.496Z,1.70
2023-02-18T02:14:18.350Z,1.98
2023-02-18T02:22:30.838Z,1.73
2023-02-18T02:30:40.590Z,2.05
2023-02-18T02:38:25.480Z,1.20
2023-02-18T02:46:03.743Z,1.42
2023-02-18T02:53:42.714Z,1.00
2023-02-18T03:01:29.011Z,1.70
2023-02-18T03:09:11.108Z,1.73
2023-02-18T03:16:50.290Z,1.33
2023-02-18T03:24:29.656Z,1.05
2023-02-18T03:32:07.976Z,0.85
2023-02-18T03:39:49.963Z,1.02
2023-02-18T03:47:24.730Z,1.35
2023-02-18T03:55:00.138Z,1.33
2023-02-18T04:02:34.762Z,0.98
2023-02-18T04:10:11.258Z,0.90
2023-02-18T04:17:45.442Z,1.10
2023-02-18T04:25:20.953Z,1.00
2023-02-18T04:32:54.768Z,0.75
2023-02-18T04:40:31.154Z,0.93
2023-02-18T04:48:05.813Z,1.15
2023-02-18T04:55:41.090Z,0.80
2023-02-18T05:03:15.264Z,1.00
2023-02-18T05:10:51.367Z,1.10
2023-02-18T05:18:25.547Z,0.90
2023-02-18T05:26:00.935Z,1.17
2023-02-18T05:33:35.017Z,0.88
2023-02-18T05:41:10.744Z,0.90
2023-02-18T05:48:44.688Z,1.08
2023-02-18T05:56:20.128Z,0.77
2023-02-18T06:11:46.714Z,1.20
2023-02-18T06:19:20.743Z,0.60
2023-02-18T06:26:57.206Z,0.70
2023-02-18T06:34:31.147Z,0.60
2023-02-18T06:42:06.725Z,0.70
2023-02-18T06:49:40.877Z,0.93
2023-02-18T06:57:16.210Z,0.50
2023-02-18T07:04:50.338Z,0.60
2023-02-18T07:12:25.831Z,0.67
2023-02-18T07:20:01.185Z,1.75
2023-02-18T07:27:36.447Z,0.82
2023-02-18T07:35:12.236Z,0.80
2023-02-18T07:42:47.426Z,0.77
2023-02-18T07:50:21.572Z,2.00
2023-02-18T07:58:01.172Z,0.93
2023-02-18T08:05:34.969Z,0.90
2023-02-18T08:13:10.570Z,0.83
2023-02-18T08:20:44.475Z,0.85
2023-02-18T08:28:20.337Z,0.50
2023-02-18T08:35:56.522Z,0.73
2023-02-18T08:43:31.886Z,0.93
2023-02-18T08:51:14.184Z,0.73
2023-02-18T08:58:49.477Z,0.68
2023-02-18T09:06:23.467Z,1.33
2023-02-18T09:13:58.960Z,1.20
2023-02-18T09:21:33.285Z,1.05
2023-02-18T09:29:09.849Z,1.48
2023-02-18T09:36:43.751Z,1.20
2023-02-18T09:44:24.301Z,1.87
2023-02-18T09:52:03.199Z,1.35
2023-02-18T09:59:38.690Z,1.40
2023-02-18T10:07:21.042Z,1.38
2023-02-18T10:14:58.666Z,1.45
2023-02-18T10:22:32.649Z,1.40
2023-02-18T10:30:24.508Z,1.60
2023-02-18T10:46:18.200Z,1.73
2023-02-18T10:53:54.389Z,1.30
2023-02-18T11:01:31.725Z,1.40
2023-02-18T11:09:07.338Z,1.75
2023-02-18T11:16:45.044Z,2.55
2023-02-18T11:24:21.622Z,2.35
2023-02-18T11:31:59.489Z,1.52
2023-02-18T11:39:33.547Z,1.77
2023-02-18T11:47:22.684Z,1.33
2023-02-18T11:55:04.526Z,1.60
2023-02-18T12:02:42.958Z,1.85
2023-02-18T12:10:24.410Z,2.03
2023-02-18T12:18:19.802Z,2.28
2023-02-18T12:26:02.928Z,2.63
2023-02-18T12:33:53.031Z,3.72
2023-02-18T12:41:40.504Z,3.05
2023-02-18T12:49:46.634Z,3.35
2023-02-18T12:57:31.075Z,4.47
2023-02-18T13:05:19.845Z,3.67
2023-02-18T13:12:59.292Z,3.45
2023-02-18T13:28:39.532Z,2.30
2023-02-18T13:36:34.537Z,2.65
2023-02-18T13:44:10.371Z,2.73
2023-02-18T13:51:48.924Z,3.08
2023-02-18T13:59:30.584Z,2.58
2023-02-18T14:07:41.666Z,2.60
2023-02-18T14:15:58.177Z,3.00
2023-02-18T14:23:57.667Z,2.40
2023-02-18T14:31:45.624Z,2.33
2023-02-18T14:39:37.388Z,2.13
2023-02-18T14:47:27.336Z,1.63
2023-02-18T14:55:05.511Z,1.50
2023-02-18T15:02:40.566Z,1.50
2023-02-18T15:10:18.893Z,0.90
2023-02-18T15:25:51.688Z,0.80
2023-02-18T15:33:25.793Z,0.70
2023-02-18T15:41:02.715Z,0.83
2023-02-18T15:48:44.974Z,1.02
2023-02-18T15:56:27.358Z,0.90
2023-02-18T16:11:59.483Z,0.85
2023-02-18T16:19:34.130Z,1.00
2023-02-18T16:27:17.375Z,0.98
2023-02-18T16:34:51.301Z,0.60
2023-02-18T16:42:26.883Z,0.70
2023-02-18T16:50:01.088Z,0.73
2023-02-18T16:57:36.435Z,0.70
2023-02-18T17:05:25.817Z,0.40
2023-02-18T17:13:02.037Z,0.65
2023-02-18T17:20:35.936Z,0.57
2023-02-18T17:28:11.268Z,0.70
2023-02-18T17:43:38.441Z,1.08
2023-02-18T17:51:23.249Z,1.15
2023-02-18T17:58:58.640Z,1.08
2023-02-18T18:06:36.138Z,1.13
2023-02-18T18:14:14.725Z,1.80
2023-02-18T18:21:49.154Z,1.45
2023-02-18T18:29:24.439Z,1.73
2023-02-18T18:36:58.314Z,1.67
2023-02-18T18:44:33.516Z,1.40
2023-02-18T18:52:07.480Z,1.40
2023-02-18T18:59:42.821Z,1.67
2023-02-18T19:07:16.717Z,1.15
2023-02-18T19:22:43.669Z,1.50
2023-02-18T19:30:22.976Z,1.60
2023-02-18T19:37:57.467Z,2.25
2023-02-18T19:45:33.012Z,1.95
2023-02-18T19:53:07.043Z,2.50
2023-02-18T20:00:43.816Z,2.20
2023-02-18T20:08:17.922Z,2.25
2023-02-18T20:15:53.308Z,2.53
2023-02-18T20:23:27.227Z,2.33
2023-02-18T20:31:07.406Z,3.87
2023-02-18T20:38:41.506Z,4.07
2023-02-18T20:46:18.945Z,3.57
2023-02-18T20:53:53.069Z,4.22
2023-02-18T21:09:20.057Z,3.42
2023-02-18T21:16:55.184Z,3.50
2023-02-18T21:24:28.982Z,3.15
2023-02-18T21:32:04.477Z,2.20
2023-02-18T21:39:38.687Z,2.38
2023-02-18T21:47:14.189Z,2.40
2023-02-18T21:54:49.040Z,2.50
2023-02-18T22:09:59.635Z,2.58
2023-02-18T22:17:35.110Z,3.13
2023-02-18T22:25:09.667Z,2.83
2023-02-18T22:32:45.053Z,2.53
2023-02-18T22:40:19.221Z,2.95
2023-02-18T22:47:54.647Z,2.57
2023-02-18T22:55:28.924Z,3.22
2023-02-18T23:03:04.254Z,3.45
2023-02-18T23:10:38.241Z,3.30
2023-02-18T23:18:13.526Z,3.10
2023-02-18T23:25:47.404Z,4.18
2023-02-18T23:33:22.880Z,3.45
2023-02-18T23:40:56.770Z,3.58
2023-02-18T23:48:32.094Z,3.90
2023-02-18T23:56:08.430Z,3.17
